Pagrindinis puslapis
METAR-TAF:

METAR-TAF

Oro uostai :

Kolda, Senegalas

platuma: 12-53N, ilguma: 014-58W, Aukštis: 10 m

Dabartinis oras

Ataskaita buvo paskelbta 1 valandą ir 5 minutes, ne 15:00 UTC
Vėjas 4 kt iš Rytų/Šiaurės Rytų
Temperatūra 31°C
Drėgmė 63%
Slėgis 1012 hPa
Matomumas 10 km arba daugiau
Išsisklaidę debesys ne aukštis 1600 ft

METAR: GOGK 211500Z 06004KT 9999 SCT016 31/23 Q1012

Laikas: 16:05 (16:05 UTC)


TAF: trūkstamas

Orai ataskaitas ir orų prognozės (METAR, TAF).

turimą stotys yra geltonos ir raudonos taškus žemėlapyje.

Perkelti pele per norėdami pamatyti stoties vardą.

Tada spustelėkite, norėdami matyti oro stebėjimo ir prognozės.

Norėdami pakeisti žemėlapį: spustelėkite ant žalios mygtukų su juodo kryžiaus žemyn,; žalią mygtuką su brūkšneliu, jei norite nutolinti; arba žalių rodyklių gretimoms žemėlapius.


METAR-TAF: